sensor_id;sensor_type;location;lat;lon;timestamp;pressure;altitude;pressure_sealevel;temperature;humidity
54994;BME280;40891;47.242;8.648;2023-03-25T00:01:00;96036.50;;;10.04;71.61
54994;BME280;40891;47.242;8.648;2023-03-25T00:03:29;96026.16;;;9.96;74.31
54994;BME280;40891;47.242;8.648;2023-03-25T00:05:57;96023.31;;;9.87;76.87
54994;BME280;40891;47.242;8.648;2023-03-25T00:08:23;96022.56;;;9.86;78.19
54994;BME280;40891;47.242;8.648;2023-03-25T00:10:53;96034.13;;;9.85;79.39
54994;BME280;40891;47.242;8.648;2023-03-25T00:13:19;96019.59;;;9.81;80.80
54994;BME280;40891;47.242;8.648;2023-03-25T00:15:46;96029.94;;;9.80;81.19
54994;BME280;40891;47.242;8.648;2023-03-25T00:18:12;96047.38;;;9.81;82.60
54994;BME280;40891;47.242;8.648;2023-03-25T00:20:39;96069.00;;;9.86;84.03
54994;BME280;40891;47.242;8.648;2023-03-25T00:23:06;96073.56;;;9.80;89.37
54994;BME280;40891;47.242;8.648;2023-03-25T00:25:32;96074.25;;;9.62;93.29
54994;BME280;40891;47.242;8.648;2023-03-25T00:27:58;96067.84;;;9.43;94.83
54994;BME280;40891;47.242;8.648;2023-03-25T00:30:23;96067.00;;;9.34;95.21
54994;BME280;40891;47.242;8.648;2023-03-25T00:32:49;96065.84;;;9.22;95.56
54994;BME280;40891;47.242;8.648;2023-03-25T00:35:17;96064.53;;;9.14;96.63
54994;BME280;40891;47.242;8.648;2023-03-25T00:37:44;96074.84;;;9.14;97.22
54994;BME280;40891;47.242;8.648;2023-03-25T00:40:10;96079.91;;;9.06;98.78
54994;BME280;40891;47.242;8.648;2023-03-25T00:42:35;96085.09;;;9.04;98.23
54994;BME280;40891;47.242;8.648;2023-03-25T00:45:01;96096.75;;;8.99;97.37
54994;BME280;40891;47.242;8.648;2023-03-25T00:47:26;96096.03;;;8.86;99.85
54994;BME280;40891;47.242;8.648;2023-03-25T00:49:51;96081.31;;;8.76;100.00
54994;BME280;40891;47.242;8.648;2023-03-25T00:52:17;96083.69;;;8.65;100.00
54994;BME280;40891;47.242;8.648;2023-03-25T00:54:43;96087.81;;;8.61;100.00
54994;BME280;40891;47.242;8.648;2023-03-25T00:57:10;96101.56;;;8.52;100.00
54994;BME280;40891;47.242;8.648;2023-03-25T00:59:36;96107.44;;;8.54;98.51
54994;BME280;40891;47.242;8.648;2023-03-25T01:02:01;96110.31;;;8.63;93.81
54994;BME280;40891;47.242;8.648;2023-03-25T01:04:27;96126.16;;;8.62;94.16
54994;BME280;40891;47.242;8.648;2023-03-25T01:06:54;96114.38;;;8.71;92.78
54994;BME280;40891;47.242;8.648;2023-03-25T01:09:20;96106.66;;;8.66;95.48
54994;BME280;40891;47.242;8.648;2023-03-25T01:11:46;96116.50;;;8.54;96.90
54994;BME280;40891;47.242;8.648;2023-03-25T01:14:18;96118.19;;;8.52;97.75
54994;BME280;40891;47.242;8.648;2023-03-25T01:16:45;96125.50;;;8.46;96.71
54994;BME280;40891;47.242;8.648;2023-03-25T01:19:11;96127.06;;;8.47;96.75
54994;BME280;40891;47.242;8.648;2023-03-25T01:21:37;96127.16;;;8.56;89.61
54994;BME280;40891;47.242;8.648;2023-03-25T01:24:03;96142.44;;;8.60;89.66
54994;BME280;40891;47.242;8.648;2023-03-25T01:26:29;96112.19;;;8.66;91.60
54994;BME280;40891;47.242;8.648;2023-03-25T01:28:54;96122.19;;;8.51;90.80
54994;BME280;40891;47.242;8.648;2023-03-25T01:31:20;96121.84;;;8.49;91.11
54994;BME280;40891;47.242;8.648;2023-03-25T01:33:47;96112.53;;;8.43;92.38
54994;BME280;40891;47.242;8.648;2023-03-25T01:36:12;96116.53;;;8.42;92.16
54994;BME280;40891;47.242;8.648;2023-03-25T01:38:39;96111.19;;;8.47;92.74
54994;BME280;40891;47.242;8.648;2023-03-25T01:41:05;96122.50;;;8.40;94.49
54994;BME280;40891;47.242;8.648;2023-03-25T01:43:31;96131.16;;;8.42;94.49
54994;BME280;40891;47.242;8.648;2023-03-25T01:45:57;96114.09;;;8.44;92.77
54994;BME280;40891;47.242;8.648;2023-03-25T01:48:38;96100.25;;;8.44;92.67
54994;BME280;40891;47.242;8.648;2023-03-25T01:51:13;96113.00;;;8.41;93.77
54994;BME280;40891;47.242;8.648;2023-03-25T01:53:41;96101.34;;;8.34;92.77
54994;BME280;40891;47.242;8.648;2023-03-25T01:56:10;96100.72;;;8.30;91.17
54994;BME280;40891;47.242;8.648;2023-03-25T01:58:38;96086.06;;;8.29;91.36
54994;BME280;40891;47.242;8.648;2023-03-25T02:01:05;96096.91;;;8.23;91.65
54994;BME280;40891;47.242;8.648;2023-03-25T02:03:31;96092.50;;;8.26;92.61
54994;BME280;40891;47.242;8.648;2023-03-25T02:06:08;96082.53;;;8.29;92.47
54994;BME280;40891;47.242;8.648;2023-03-25T02:08:37;96089.72;;;8.26;92.85
54994;BME280;40891;47.242;8.648;2023-03-25T02:11:10;96084.63;;;8.24;92.20
54994;BME280;40891;47.242;8.648;2023-03-25T02:13:38;96084.19;;;8.26;92.52
54994;BME280;40891;47.242;8.648;2023-03-25T02:19:05;96077.88;;;8.26;93.05
54994;BME280;40891;47.242;8.648;2023-03-25T02:22:06;96069.13;;;8.27;91.52
54994;BME280;40891;47.242;8.648;2023-03-25T02:36:18;96060.03;;;8.27;90.67
54994;BME280;40891;47.242;8.648;2023-03-25T02:39:03;96060.47;;;8.25;89.56
54994;BME280;40891;47.242;8.648;2023-03-25T02:41:44;96055.50;;;8.33;88.96
54994;BME280;40891;47.242;8.648;2023-03-25T02:44:41;96046.97;;;8.27;89.00
54994;BME280;40891;47.242;8.648;2023-03-25T02:47:14;96041.66;;;8.33;87.74
54994;BME280;40891;47.242;8.648;2023-03-25T02:49:47;96044.75;;;8.35;89.20
54994;BME280;40891;47.242;8.648;2023-03-25T02:52:31;96049.28;;;8.41;85.21
54994;BME280;40891;47.242;8.648;2023-03-25T02:55:00;96037.59;;;8.59;83.66
54994;BME280;40891;47.242;8.648;2023-03-25T02:57:30;96049.59;;;8.56;84.60
54994;BME280;40891;47.242;8.648;2023-03-25T02:59:56;96053.63;;;8.64;82.45
54994;BME280;40891;47.242;8.648;2023-03-25T03:02:24;96057.72;;;8.72;82.19
54994;BME280;40891;47.242;8.648;2023-03-25T03:04:55;96071.91;;;8.74;82.19
54994;BME280;40891;47.242;8.648;2023-03-25T03:07:33;96072.56;;;8.78;81.04
54994;BME280;40891;47.242;8.648;2023-03-25T03:10:15;96088.94;;;8.85;80.76
54994;BME280;40891;47.242;8.648;2023-03-25T03:15:31;96092.13;;;8.96;79.99
54994;BME280;40891;47.242;8.648;2023-03-25T03:20:43;96091.47;;;8.92;81.29
54994;BME280;40891;47.242;8.648;2023-03-25T03:23:27;96099.13;;;8.88;80.93
54994;BME280;40891;47.242;8.648;2023-03-25T03:26:10;96107.66;;;8.94;81.24
54994;BME280;40891;47.242;8.648;2023-03-25T03:28:44;96115.97;;;8.94;82.54
54994;BME280;40891;47.242;8.648;2023-03-25T03:31:28;96147.84;;;8.76;86.95
54994;BME280;40891;47.242;8.648;2023-03-25T03:34:00;96147.22;;;8.60;93.12
54994;BME280;40891;47.242;8.648;2023-03-25T03:36:32;96179.81;;;7.77;96.05
54994;BME280;40891;47.242;8.648;2023-03-25T03:39:04;96192.69;;;7.26;98.75
54994;BME280;40891;47.242;8.648;2023-03-25T03:41:33;96179.44;;;6.88;98.42
54994;BME280;40891;47.242;8.648;2023-03-25T03:44:03;96171.88;;;6.76;100.00
54994;BME280;40891;47.242;8.648;2023-03-25T03:46:39;96178.94;;;6.61;100.00
54994;BME280;40891;47.242;8.648;2023-03-25T03:49:09;96161.94;;;6.47;100.00
54994;BME280;40891;47.242;8.648;2023-03-25T03:51:41;96177.03;;;6.26;100.00
54994;BME280;40891;47.242;8.648;2023-03-25T03:54:17;96197.38;;;6.16;100.00
54994;BME280;40891;47.242;8.648;2023-03-25T03:57:02;96201.50;;;6.08;100.00
54994;BME280;40891;47.242;8.648;2023-03-25T04:02:19;96209.56;;;5.99;100.00
54994;BME280;40891;47.242;8.648;2023-03-25T04:04:49;96214.81;;;5.74;100.00
54994;BME280;40891;47.242;8.648;2023-03-25T04:07:17;96220.13;;;5.65;100.00
54994;BME280;40891;47.242;8.648;2023-03-25T04:09:56;96229.22;;;5.62;100.00
54994;BME280;40891;47.242;8.648;2023-03-25T04:12:28;96232.25;;;5.47;100.00
54994;BME280;40891;47.242;8.648;2023-03-25T04:14:55;96228.00;;;5.43;100.00
54994;BME280;40891;47.242;8.648;2023-03-25T04:17:23;96224.56;;;5.39;100.00
54994;BME280;40891;47.242;8.648;2023-03-25T04:19:49;96240.00;;;5.33;100.00
54994;BME280;40891;47.242;8.648;2023-03-25T04:22:18;96233.09;;;5.25;100.00
54994;BME280;40891;47.242;8.648;2023-03-25T04:24:44;96234.72;;;5.22;100.00
54994;BME280;40891;47.242;8.648;2023-03-25T04:27:16;96226.00;;;5.24;100.00
54994;BME280;40891;47.242;8.648;2023-03-25T04:29:41;96228.34;;;5.25;100.00
54994;BME280;40891;47.242;8.648;2023-03-25T04:32:09;96225.88;;;5.31;100.00
54994;BME280;40891;47.242;8.648;2023-03-25T04:34:35;96214.06;;;5.30;100.00
54994;BME280;40891;47.242;8.648;2023-03-25T04:37:01;96213.59;;;5.35;100.00
54994;BME280;40891;47.242;8.648;2023-03-25T04:39:27;96207.22;;;5.38;100.00
54994;BME280;40891;47.242;8.648;2023-03-25T04:41:54;96201.44;;;5.53;100.00
54994;BME280;40891;47.242;8.648;2023-03-25T04:44:21;96221.19;;;5.51;100.00
54994;BME280;40891;47.242;8.648;2023-03-25T04:46:50;96220.94;;;5.62;100.00
54994;BME280;40891;47.242;8.648;2023-03-25T04:49:20;96228.19;;;5.56;100.00
54994;BME280;40891;47.242;8.648;2023-03-25T04:51:49;96216.56;;;5.44;100.00
54994;BME280;40891;47.242;8.648;2023-03-25T04:54:19;96224.81;;;5.44;100.00
54994;BME280;40891;47.242;8.648;2023-03-25T04:56:46;96232.44;;;5.17;100.00
54994;BME280;40891;47.242;8.648;2023-03-25T04:59:13;96226.13;;;5.17;100.00
54994;BME280;40891;47.242;8.648;2023-03-25T05:01:40;96206.50;;;5.15;100.00
54994;BME280;40891;47.242;8.648;2023-03-25T05:04:10;96198.66;;;5.13;100.00
54994;BME280;40891;47.242;8.648;2023-03-25T05:06:43;96178.25;;;5.11;100.00
54994;BME280;40891;47.242;8.648;2023-03-25T05:09:11;96185.81;;;5.26;100.00
54994;BME280;40891;47.242;8.648;2023-03-25T05:11:37;96190.19;;;5.24;100.00
54994;BME280;40891;47.242;8.648;2023-03-25T05:14:05;96178.72;;;5.25;100.00
54994;BME280;40891;47.242;8.648;2023-03-25T05:16:30;96186.09;;;5.32;100.00
54994;BME280;40891;47.242;8.648;2023-03-25T05:18:56;96178.72;;;5.25;100.00
54994;BME280;40891;47.242;8.648;2023-03-25T05:21:21;96172.88;;;5.23;100.00
54994;BME280;40891;47.242;8.648;2023-03-25T05:23:46;96168.44;;;5.29;100.00
54994;BME280;40891;47.242;8.648;2023-03-25T05:26:12;96167.94;;;5.34;100.00
54994;BME280;40891;47.242;8.648;2023-03-25T05:28:38;96194.25;;;5.39;100.00
54994;BME280;40891;47.242;8.648;2023-03-25T05:31:04;96211.41;;;5.46;100.00
54994;BME280;40891;47.242;8.648;2023-03-25T05:33:34;96188.50;;;5.49;100.00
54994;BME280;40891;47.242;8.648;2023-03-25T05:36:10;96185.81;;;5.46;100.00
54994;BME280;40891;47.242;8.648;2023-03-25T05:38:38;96194.78;;;5.50;100.00
54994;BME280;40891;47.242;8.648;2023-03-25T05:41:08;96190.41;;;5.53;100.00
54994;BME280;40891;47.242;8.648;2023-03-25T05:43:39;96190.47;;;5.49;100.00
54994;BME280;40891;47.242;8.648;2023-03-25T05:46:04;96196.97;;;5.59;100.00
54994;BME280;40891;47.242;8.648;2023-03-25T05:48:31;96197.41;;;5.57;100.00
54994;BME280;40891;47.242;8.648;2023-03-25T05:51:02;96193.88;;;5.57;100.00
54994;BME280;40891;47.242;8.648;2023-03-25T05:53:28;96182.78;;;5.60;100.00
54994;BME280;40891;47.242;8.648;2023-03-25T05:55:55;96179.94;;;5.64;100.00
54994;BME280;40891;47.242;8.648;2023-03-25T05:58:20;96185.41;;;5.67;100.00
54994;BME280;40891;47.242;8.648;2023-03-25T06:00:46;96187.66;;;5.72;100.00
54994;BME280;40891;47.242;8.648;2023-03-25T06:03:12;96177.22;;;5.80;100.00
54994;BME280;40891;47.242;8.648;2023-03-25T06:05:38;96185.25;;;5.94;100.00
54994;BME280;40891;47.242;8.648;2023-03-25T06:08:04;96182.06;;;5.95;100.00
54994;BME280;40891;47.242;8.648;2023-03-25T06:10:29;96178.72;;;6.04;100.00
54994;BME280;40891;47.242;8.648;2023-03-25T06:12:55;96184.19;;;6.24;100.00
54994;BME280;40891;47.242;8.648;2023-03-25T06:15:21;96190.06;;;6.42;100.00
54994;BME280;40891;47.242;8.648;2023-03-25T06:17:54;96204.13;;;6.31;100.00
54994;BME280;40891;47.242;8.648;2023-03-25T06:20:19;96219.06;;;6.34;100.00
54994;BME280;40891;47.242;8.648;2023-03-25T06:22:45;96217.44;;;6.36;100.00
54994;BME280;40891;47.242;8.648;2023-03-25T06:25:13;96220.69;;;6.31;100.00
54994;BME280;40891;47.242;8.648;2023-03-25T06:27:41;96220.34;;;6.29;100.00
54994;BME280;40891;47.242;8.648;2023-03-25T06:30:09;96228.78;;;6.22;100.00
54994;BME280;40891;47.242;8.648;2023-03-25T06:32:35;96236.19;;;6.25;100.00
54994;BME280;40891;47.242;8.648;2023-03-25T06:35:01;96243.78;;;6.21;100.00
54994;BME280;40891;47.242;8.648;2023-03-25T06:37:27;96251.47;;;6.30;100.00
54994;BME280;40891;47.242;8.648;2023-03-25T06:39:52;96242.19;;;6.40;100.00
54994;BME280;40891;47.242;8.648;2023-03-25T06:42:21;96246.56;;;6.37;100.00
54994;BME280;40891;47.242;8.648;2023-03-25T06:44:48;96241.03;;;6.21;100.00
54994;BME280;40891;47.242;8.648;2023-03-25T06:47:13;96215.41;;;6.21;100.00
54994;BME280;40891;47.242;8.648;2023-03-25T06:49:39;96237.06;;;6.22;100.00
54994;BME280;40891;47.242;8.648;2023-03-25T06:52:04;96240.88;;;6.28;100.00
54994;BME280;40891;47.242;8.648;2023-03-25T06:54:29;96230.84;;;6.34;100.00
54994;BME280;40891;47.242;8.648;2023-03-25T06:56:55;96227.81;;;6.48;100.00
54994;BME280;40891;47.242;8.648;2023-03-25T06:59:20;96223.47;;;6.47;100.00
54994;BME280;40891;47.242;8.648;2023-03-25T07:01:45;96218.72;;;6.48;100.00
54994;BME280;40891;47.242;8.648;2023-03-25T07:04:10;96217.34;;;6.40;100.00
54994;BME280;40891;47.242;8.648;2023-03-25T07:06:36;96221.66;;;6.41;100.00
54994;BME280;40891;47.242;8.648;2023-03-25T07:09:01;96229.16;;;6.40;100.00
54994;BME280;40891;47.242;8.648;2023-03-25T07:11:28;96219.94;;;6.47;100.00
54994;BME280;40891;47.242;8.648;2023-03-25T07:13:54;96214.69;;;6.52;100.00
54994;BME280;40891;47.242;8.648;2023-03-25T07:16:21;96208.03;;;6.66;100.00
54994;BME280;40891;47.242;8.648;2023-03-25T07:18:46;96207.88;;;6.73;100.00
54994;BME280;40891;47.242;8.648;2023-03-25T07:21:12;96209.31;;;6.77;100.00
54994;BME280;40891;47.242;8.648;2023-03-25T07:23:37;96204.72;;;7.03;100.00
54994;BME280;40891;47.242;8.648;2023-03-25T07:26:03;96207.84;;;7.05;100.00
54994;BME280;40891;47.242;8.648;2023-03-25T07:28:28;96207.25;;;6.98;100.00
54994;BME280;40891;47.242;8.648;2023-03-25T07:30:53;96197.06;;;6.95;100.00
54994;BME280;40891;47.242;8.648;2023-03-25T07:33:19;96207.34;;;6.94;100.00
54994;BME280;40891;47.242;8.648;2023-03-25T07:35:44;96202.31;;;6.89;100.00
54994;BME280;40891;47.242;8.648;2023-03-25T07:38:10;96198.84;;;7.01;100.00
54994;BME280;40891;47.242;8.648;2023-03-25T07:40:35;96192.53;;;7.17;100.00
54994;BME280;40891;47.242;8.648;2023-03-25T07:43:00;96196.91;;;7.30;100.00
54994;BME280;40891;47.242;8.648;2023-03-25T07:45:26;96192.19;;;7.43;100.00
54994;BME280;40891;47.242;8.648;2023-03-25T07:47:51;96195.34;;;7.58;100.00
54994;BME280;40891;47.242;8.648;2023-03-25T07:50:18;96188.16;;;7.89;100.00
54994;BME280;40891;47.242;8.648;2023-03-25T07:52:44;96188.66;;;8.26;100.00
54994;BME280;40891;47.242;8.648;2023-03-25T07:55:10;96186.78;;;8.48;100.00
54994;BME280;40891;47.242;8.648;2023-03-25T07:57:36;96200.09;;;8.65;100.00
54994;BME280;40891;47.242;8.648;2023-03-25T08:00:01;96191.41;;;8.76;100.00
54994;BME280;40891;47.242;8.648;2023-03-25T08:02:29;96195.53;;;8.71;100.00
54994;BME280;40891;47.242;8.648;2023-03-25T08:04:54;96190.66;;;8.63;100.00
54994;BME280;40891;47.242;8.648;2023-03-25T08:07:21;96208.50;;;8.49;100.00
54994;BME280;40891;47.242;8.648;2023-03-25T08:09:46;96207.19;;;8.41;99.71
54994;BME280;40891;47.242;8.648;2023-03-25T08:12:12;96199.19;;;8.43;100.00
54994;BME280;40891;47.242;8.648;2023-03-25T08:14:37;96192.78;;;8.46;99.27
54994;BME280;40891;47.242;8.648;2023-03-25T08:17:06;96191.53;;;8.60;96.74
54994;BME280;40891;47.242;8.648;2023-03-25T08:19:31;96177.44;;;8.79;95.05
54994;BME280;40891;47.242;8.648;2023-03-25T08:21:57;96174.06;;;8.97;92.84
54994;BME280;40891;47.242;8.648;2023-03-25T08:24:23;96168.53;;;8.97;91.11
54994;BME280;40891;47.242;8.648;2023-03-25T08:26:51;96172.59;;;9.18;94.35
54994;BME280;40891;47.242;8.648;2023-03-25T08:29:18;96172.91;;;9.20;88.93
54994;BME280;40891;47.242;8.648;2023-03-25T08:31:44;96174.41;;;9.68;92.04
54994;BME280;40891;47.242;8.648;2023-03-25T08:34:12;96157.38;;;9.87;89.73
54994;BME280;40891;47.242;8.648;2023-03-25T08:36:37;96158.56;;;10.30;90.48
54994;BME280;40891;47.242;8.648;2023-03-25T08:39:04;96151.38;;;10.90;91.68
54994;BME280;40891;47.242;8.648;2023-03-25T08:41:33;96163.00;;;11.16;81.84
54994;BME280;40891;47.242;8.648;2023-03-25T08:43:59;96150.47;;;11.20;84.96
54994;BME280;40891;47.242;8.648;2023-03-25T08:46:24;96154.03;;;11.39;84.37
54994;BME280;40891;47.242;8.648;2023-03-25T08:48:50;96158.34;;;11.22;77.06
54994;BME280;40891;47.242;8.648;2023-03-25T08:51:15;96169.06;;;10.65;80.12
54994;BME280;40891;47.242;8.648;2023-03-25T08:53:40;96176.00;;;10.30;81.93
54994;BME280;40891;47.242;8.648;2023-03-25T08:56:06;96179.25;;;10.29;83.62
54994;BME280;40891;47.242;8.648;2023-03-25T08:58:31;96172.28;;;10.24;87.40
54994;BME280;40891;47.242;8.648;2023-03-25T09:00:57;96166.22;;;9.95;87.54
54994;BME280;40891;47.242;8.648;2023-03-25T09:03:23;96168.22;;;9.73;86.69
54994;BME280;40891;47.242;8.648;2023-03-25T09:05:48;96166.19;;;9.64;87.64
54994;BME280;40891;47.242;8.648;2023-03-25T09:08:14;96168.13;;;9.54;86.58
54994;BME280;40891;47.242;8.648;2023-03-25T09:10:40;96157.75;;;9.68;83.63
54994;BME280;40891;47.242;8.648;2023-03-25T09:13:05;96157.28;;;9.69;86.90
54994;BME280;40891;47.242;8.648;2023-03-25T09:15:31;96155.13;;;9.73;88.69
54994;BME280;40891;47.242;8.648;2023-03-25T09:17:56;96157.06;;;9.85;87.30
54994;BME280;40891;47.242;8.648;2023-03-25T09:20:22;96157.78;;;9.98;91.40
54994;BME280;40891;47.242;8.648;2023-03-25T09:22:47;96149.69;;;10.13;97.67
54994;BME280;40891;47.242;8.648;2023-03-25T09:25:13;96160.53;;;10.20;95.36
54994;BME280;40891;47.242;8.648;2023-03-25T09:27:39;96144.78;;;10.57;96.01
54994;BME280;40891;47.242;8.648;2023-03-25T09:30:06;96165.47;;;10.56;88.83
54994;BME280;40891;47.242;8.648;2023-03-25T09:32:32;96172.25;;;10.46;91.12
54994;BME280;40891;47.242;8.648;2023-03-25T09:34:57;96162.19;;;10.48;94.25
54994;BME280;40891;47.242;8.648;2023-03-25T09:37:23;96151.84;;;10.49;94.40
54994;BME280;40891;47.242;8.648;2023-03-25T09:39:48;96157.03;;;10.29;95.07
54994;BME280;40891;47.242;8.648;2023-03-25T09:48:00;96164.75;;;9.59;97.07
54994;BME280;40891;47.242;8.648;2023-03-25T09:50:29;96177.34;;;9.51;99.88
54994;BME280;40891;47.242;8.648;2023-03-25T09:53:34;96188.19;;;9.37;100.00
54994;BME280;40891;47.242;8.648;2023-03-25T09:56:02;96197.19;;;9.28;100.00
54994;BME280;40891;47.242;8.648;2023-03-25T09:58:48;96195.47;;;9.43;95.70
54994;BME280;40891;47.242;8.648;2023-03-25T10:01:38;96200.56;;;9.45;92.10
54994;BME280;40891;47.242;8.648;2023-03-25T10:10:02;96175.81;;;11.13;83.14
54994;BME280;40891;47.242;8.648;2023-03-25T10:12:43;96166.50;;;10.98;78.43
54994;BME280;40891;47.242;8.648;2023-03-25T10:17:58;96160.59;;;12.32;74.33
54994;BME280;40891;47.242;8.648;2023-03-25T10:23:41;96177.09;;;10.63;82.18
54994;BME280;40891;47.242;8.648;2023-03-25T10:26:27;96179.81;;;10.45;84.72
54994;BME280;40891;47.242;8.648;2023-03-25T10:29:03;96182.94;;;10.04;86.73
54994;BME280;40891;47.242;8.648;2023-03-25T10:31:34;96182.25;;;9.91;88.53
54994;BME280;40891;47.242;8.648;2023-03-25T10:34:06;96179.16;;;10.41;86.98
54994;BME280;40891;47.242;8.648;2023-03-25T10:36:42;96183.63;;;10.78;85.96
54994;BME280;40891;47.242;8.648;2023-03-25T10:39:17;96202.94;;;10.42;87.72
54994;BME280;40891;47.242;8.648;2023-03-25T10:41:50;96211.69;;;9.88;85.75
54994;BME280;40891;47.242;8.648;2023-03-25T10:44:20;96203.50;;;9.85;88.98
54994;BME280;40891;47.242;8.648;2023-03-25T10:46:50;96195.69;;;10.14;86.47
54994;BME280;40891;47.242;8.648;2023-03-25T10:49:26;96194.06;;;11.14;84.09
54994;BME280;40891;47.242;8.648;2023-03-25T10:51:53;96195.34;;;11.58;78.31
54994;BME280;40891;47.242;8.648;2023-03-25T10:54:20;96188.53;;;11.41;76.67
54994;BME280;40891;47.242;8.648;2023-03-25T10:56:49;96180.31;;;12.10;75.92
54994;BME280;40891;47.242;8.648;2023-03-25T10:59:29;96189.41;;;12.80;75.61
54994;BME280;40891;47.242;8.648;2023-03-25T11:01:59;96178.19;;;13.98;63.93
54994;BME280;40891;47.242;8.648;2023-03-25T11:04:33;96169.88;;;15.66;58.68
54994;BME280;40891;47.242;8.648;2023-03-25T11:07:01;96170.75;;;15.98;56.49
54994;BME280;40891;47.242;8.648;2023-03-25T11:09:30;96168.41;;;14.96;58.57
54994;BME280;40891;47.242;8.648;2023-03-25T11:12:02;96173.81;;;14.50;61.08
54994;BME280;40891;47.242;8.648;2023-03-25T11:14:29;96159.69;;;14.59;61.25
54994;BME280;40891;47.242;8.648;2023-03-25T11:16:59;96152.41;;;15.77;56.24
54994;BME280;40891;47.242;8.648;2023-03-25T11:19:34;96172.47;;;14.46;60.80
54994;BME280;40891;47.242;8.648;2023-03-25T11:24:48;96184.47;;;13.31;62.57
54994;BME280;40891;47.242;8.648;2023-03-25T11:27:20;96165.59;;;14.47;58.78
54994;BME280;40891;47.242;8.648;2023-03-25T11:29:52;96168.22;;;14.50;60.31
54994;BME280;40891;47.242;8.648;2023-03-25T11:32:30;96169.50;;;15.19;55.92
54994;BME280;40891;47.242;8.648;2023-03-25T11:34:56;96156.06;;;16.34;52.88
54994;BME280;40891;47.242;8.648;2023-03-25T11:37:24;96153.22;;;16.03;53.31
54994;BME280;40891;47.242;8.648;2023-03-25T11:39:55;96157.75;;;15.75;55.29
54994;BME280;40891;47.242;8.648;2023-03-25T11:44:54;96148.72;;;16.68;51.25
54994;BME280;40891;47.242;8.648;2023-03-25T11:47:24;96149.78;;;15.48;55.38
54994;BME280;40891;47.242;8.648;2023-03-25T11:49:52;96164.25;;;14.57;57.32
54994;BME280;40891;47.242;8.648;2023-03-25T11:52:21;96160.56;;;13.54;61.17
54994;BME280;40891;47.242;8.648;2023-03-25T11:54:47;96158.41;;;13.34;61.80
54994;BME280;40891;47.242;8.648;2023-03-25T11:57:17;96161.50;;;12.71;63.35
54994;BME280;40891;47.242;8.648;2023-03-25T11:59:46;96146.66;;;13.83;59.36
54994;BME280;40891;47.242;8.648;2023-03-25T12:02:37;96156.59;;;14.28;56.65
54994;BME280;40891;47.242;8.648;2023-03-25T12:05:14;96163.75;;;13.61;58.16
54994;BME280;40891;47.242;8.648;2023-03-25T12:07:49;96148.69;;;13.44;60.13
54994;BME280;40891;47.242;8.648;2023-03-25T12:13:05;96139.47;;;14.35;56.71
54994;BME280;40891;47.242;8.648;2023-03-25T12:15:54;96138.94;;;13.93;56.34
54994;BME280;40891;47.242;8.648;2023-03-25T12:26:32;96140.41;;;11.95;58.75
54994;BME280;40891;47.242;8.648;2023-03-25T12:37:04;96137.13;;;12.80;56.14
54994;BME280;40891;47.242;8.648;2023-03-25T12:40:03;96123.78;;;13.70;54.94
54994;BME280;40891;47.242;8.648;2023-03-25T12:45:48;96134.03;;;14.61;51.54
54994;BME280;40891;47.242;8.648;2023-03-25T12:51:04;96115.19;;;16.02;46.37
54994;BME280;40891;47.242;8.648;2023-03-25T12:56:35;96149.84;;;16.51;45.18
54994;BME280;40891;47.242;8.648;2023-03-25T12:59:20;96150.66;;;14.84;50.26
54994;BME280;40891;47.242;8.648;2023-03-25T13:02:10;96144.63;;;14.13;51.41
54994;BME280;40891;47.242;8.648;2023-03-25T13:07:33;96137.16;;;15.58;49.75
54994;BME280;40891;47.242;8.648;2023-03-25T13:10:21;96120.03;;;15.36;48.94
54994;BME280;40891;47.242;8.648;2023-03-25T13:12:58;96129.44;;;15.33;49.82
54994;BME280;40891;47.242;8.648;2023-03-25T13:15:31;96144.66;;;14.91;50.73
54994;BME280;40891;47.242;8.648;2023-03-25T13:18:12;96147.06;;;14.98;51.76
54994;BME280;40891;47.242;8.648;2023-03-25T13:20:43;96148.38;;;15.03;51.25
54994;BME280;40891;47.242;8.648;2023-03-25T13:23:17;96129.63;;;14.74;52.58
54994;BME280;40891;47.242;8.648;2023-03-25T13:26:11;96136.38;;;14.48;52.66
54994;BME280;40891;47.242;8.648;2023-03-25T13:28:42;96173.25;;;13.79;55.04
54994;BME280;40891;47.242;8.648;2023-03-25T13:31:14;96144.97;;;13.24;57.05
54994;BME280;40891;47.242;8.648;2023-03-25T13:34:28;96164.97;;;12.15;60.19
54994;BME280;40891;47.242;8.648;2023-03-25T13:39:27;96154.44;;;12.19;62.98
54994;BME280;40891;47.242;8.648;2023-03-25T13:42:02;96167.19;;;12.02;62.47
54994;BME280;40891;47.242;8.648;2023-03-25T13:44:38;96138.16;;;13.78;56.08
54994;BME280;40891;47.242;8.648;2023-03-25T13:49:50;96132.97;;;14.00;55.80
54994;BME280;40891;47.242;8.648;2023-03-25T13:52:16;96141.13;;;15.11;52.50
54994;BME280;40891;47.242;8.648;2023-03-25T13:55:00;96148.41;;;15.43;50.17
54994;BME280;40891;47.242;8.648;2023-03-25T13:57:54;96130.56;;;15.41;50.87
54994;BME280;40891;47.242;8.648;2023-03-25T14:01:06;96148.09;;;14.81;50.68
54994;BME280;40891;47.242;8.648;2023-03-25T14:11:55;96104.34;;;17.74;43.99
54994;BME280;40891;47.242;8.648;2023-03-25T14:14:27;96118.59;;;16.69;45.38
54994;BME280;40891;47.242;8.648;2023-03-25T14:16:55;96105.72;;;18.39;42.82
54994;BME280;40891;47.242;8.648;2023-03-25T14:19:37;96090.84;;;17.89;42.24
54994;BME280;40891;47.242;8.648;2023-03-25T14:22:14;96096.56;;;17.41;44.18
54994;BME280;40891;47.242;8.648;2023-03-25T14:24:40;96098.44;;;17.07;43.32
54994;BME280;40891;47.242;8.648;2023-03-25T14:27:16;96098.66;;;16.35;46.04
54994;BME280;40891;47.242;8.648;2023-03-25T14:29:45;96100.31;;;16.48;45.15
54994;BME280;40891;47.242;8.648;2023-03-25T14:34:40;96117.13;;;17.69;41.35
54994;BME280;40891;47.242;8.648;2023-03-25T14:44:35;96098.22;;;14.99;48.61
54994;BME280;40891;47.242;8.648;2023-03-25T14:47:26;96112.53;;;14.08;51.58
54994;BME280;40891;47.242;8.648;2023-03-25T14:52:50;96112.25;;;13.24;55.08
54994;BME280;40891;47.242;8.648;2023-03-25T14:55:45;96124.88;;;12.87;56.58
54994;BME280;40891;47.242;8.648;2023-03-25T14:58:25;96131.78;;;12.68;57.80
54994;BME280;40891;47.242;8.648;2023-03-25T15:00:57;96123.59;;;12.32;57.15